Ana Sayfa
METAR-TAF:

METAR-TAF

Havaalanları :

Christchurch, Yeni Zelanda

Enlem: 43-29S, Boylam: 172-33E, yükseklik: 38 m

Güncel hava durumu gözlemi

Rapor saat 23:30 UTC de 31 dakika önce yapıldı.
Rüzgar kuzey/kuzeydoğudan 2 kt
Sıcaklık 17°C
Nem 55%
Basınç 1020 hPa
Görüş mesafesi 10 km veya daha fazla

METAR: NZCH 252330Z AUTO 03002KT 9999 NCD 17/08 Q1020 NOSIG

Saat: 12:01 (00:01 UTC)

Tahmin

Rapor saat 23:07 UTC de 54 dakika önce yapıldı.
Ayın 26'si saat 00 UTC'den ayın 27'si saat 00 UTC'ye kadar geçerli Tahmin
Rüzgar doğu/kuzeydoğudan 8 kt
Görüş mesafesi 10 km veya daha fazla
1500 m altında bulut yok ve kümülonimbus yok
Olasılık 30%
ayın 26'si saat 12 UTC'den ayın 26'si saat 19 UTC'ye kadar
Görüş mesafesi: 0500 m
sis

TAF: NZCH 252307Z 2600/2700 06008KT CAVOK PROB30 2612/2619 0500 FG

4.000'den fazla havaalanı için hava durumu gözlemleri ve tahminleri (METAR ve TAF raporları).

Kullanılabilir istasyonlar harita üzerinde sarı ve kırmızı noktalarla gösterilir.

İstasyonun adını görmek için fareyi noktanın üzerinde gezdirin.

Sonrasında hava gözlem ve tahminlerini görmek için tıklayın.

Haritayı değiştirmek için: yaklaştırmak için siyah artı işaretli yeşil düğmeye ve uzaklaştırmak için de eksi işaretli düğmeye hızla tıklayın; bitişik haritalar için yeşil okları kullanın.


METAR-TAF: